Daily Summary for May 08, 2026 Units:  Metric    English   Both
Daily Weekly Monthly Yearly
  Current: High: Low: Average:
Temperature: 12.9 °C 13.1 °C 6.2 °C 7.9 °C
Dew Point: 7.5 °C 7.9 °C 1.9 °C 4.3 °C
Humidity: 69.5% 86% 69.3% 78%
Wind Speed: 17km/h 24.1km/h 3.2km/h 12.4km/h
Wind Gust: 32.2km/h 43.5km/h - -
WindWNW - - NW
Pressure: 1017.7 hPa 1019.3 hPa 1017.7 hPa -
Precipitation: 0.0 mm      
 
 
Tabular Data for May 08, 2026
Time Temperature Dew Point Pressure Wind Wind Speed Wind Gust Humidity Rainfall Rate (Hourly) solar
00:09 6.6 °C 2.1 °C 1019.1 hPa NNW 4.8 km/h 14.5 km/h 73% 0.0 mm 0 W/m2
00:14 6.7 °C 2.2 °C 1019.0 hPa NW 5.8 km/h 16.1 km/h 73% 0.0 mm 0 W/m2
00:19 6.7 °C 2.2 °C 1019.0 hPa WNW 6.4 km/h 16.1 km/h 73% 0.0 mm 0 W/m2
00:24 6.8 °C 2.2 °C 1019.0 hPa WNW 6.8 km/h 19.3 km/h 72.7% 0.0 mm 0 W/m2
00:29 6.8 °C 2.1 °C 1018.8 hPa West 9.4 km/h 20.9 km/h 72% 0.0 mm 0 W/m2
00:34 6.8 °C 2.1 °C 1018.8 hPa West 10.2 km/h 20.9 km/h 72% 0.0 mm 0 W/m2
00:39 6.8 °C 2.1 °C 1018.8 hPa West 7 km/h 20.9 km/h 72% 0.0 mm 0 W/m2
00:44 6.8 °C 2.1 °C 1018.9 hPa WNW 4.8 km/h 14.5 km/h 72% 0.0 mm 0 W/m2
00:49 6.8 °C 2.1 °C 1019.1 hPa NW 4.8 km/h 14.5 km/h 72% 0.0 mm 0 W/m2
00:54 6.8 °C 2.1 °C 1019.1 hPa NW 4.8 km/h 14.5 km/h 72% 0.0 mm 0 W/m2
00:59 6.8 °C 2.1 °C 1019.0 hPa NW 3.8 km/h 14.5 km/h 72% 0.0 mm 0 W/m2
01:04 6.8 °C 2.1 °C 1019.0 hPa WNW 3.2 km/h 14.5 km/h 72% 0.0 mm 0 W/m2
01:09 6.8 °C 2 °C 1019.0 hPa WNW 4.2 km/h 16.1 km/h 72% 0.0 mm 0 W/m2
01:14 6.8 °C 2 °C 1019.0 hPa West 4.8 km/h 16.1 km/h 72% 0.0 mm 0 W/m2
01:19 6.7 °C 2 °C 1018.9 hPa WSW 3.5 km/h 14.5 km/h 72% 0.0 mm 0 W/m2
01:24 6.7 °C 2 °C 1018.8 hPa West 3.2 km/h 11.3 km/h 72% 0.0 mm 0 W/m2
01:29 6.6 °C 1.9 °C 1018.7 hPa WNW 3.2 km/h 11.3 km/h 72% 0.0 mm 0 W/m2
01:34 6.6 °C 2 °C 1018.8 hPa NNW 3.6 km/h 16.1 km/h 72.6% 0.0 mm 0 W/m2
01:39 6.6 °C 2.1 °C 1018.8 hPa NNW 5.8 km/h 16.1 km/h 73% 0.0 mm 0 W/m2
01:44 6.6 °C 2.1 °C 1018.7 hPa NNW 7.1 km/h 16.1 km/h 73% 0.0 mm 0 W/m2
01:49 6.7 °C 2.1 °C 1018.5 hPa NW 6.4 km/h 14.5 km/h 72.8% 0.0 mm 0 W/m2
01:54 6.6 °C 2.1 °C 1018.6 hPa NW 6.1 km/h 14.5 km/h 73% 0.0 mm 0 W/m2
01:59 6.5 °C 2 °C 1018.6 hPa WNW 5.1 km/h 12.9 km/h 73% 0.0 mm 0 W/m2
02:04 6.5 °C 2 °C 1018.7 hPa WNW 4.5 km/h 16.1 km/h 73% 0.0 mm 0 W/m2
02:09 6.5 °C 2 °C 1018.6 hPa WNW 5.2 km/h 16.1 km/h 73% 0.0 mm 0 W/m2
02:14 6.5 °C 2.1 °C 1018.5 hPa West 6.8 km/h 20.9 km/h 73.6% 0.0 mm 0 W/m2
02:19 6.6 °C 2.3 °C 1018.5 hPa West 8.7 km/h 32.2 km/h 74% 0.0 mm 0 W/m2
02:24 6.8 °C 2.5 °C 1018.6 hPa West 13.6 km/h 32.2 km/h 74% 0.0 mm 0 W/m2
02:29 7 °C 2.6 °C 1018.6 hPa West 15.4 km/h 32.2 km/h 73.3% 0.0 mm 0 W/m2
02:34 7.1 °C 2.6 °C 1018.7 hPa West 13.2 km/h 25.7 km/h 73% 0.0 mm 0 W/m2
02:39 7.2 °C 2.7 °C 1018.7 hPa West 11.5 km/h 22.5 km/h 73% 0.0 mm 0 W/m2
02:44 7.2 °C 2.7 °C 1018.6 hPa West 9 km/h 22.5 km/h 73% 0.0 mm 0 W/m2
02:49 7.2 °C 2.8 °C 1018.5 hPa WNW 8 km/h 16.1 km/h 73.8% 0.0 mm 0 W/m2
02:54 7.1 °C 2.8 °C 1018.4 hPa WNW 8 km/h 16.1 km/h 74% 0.0 mm 0 W/m2
02:59 7.1 °C 2.8 °C 1018.4 hPa NW 6.8 km/h 16.1 km/h 74.2% 0.0 mm 0 W/m2
03:04 7.1 °C 2.9 °C 1018.4 hPa NW 7.4 km/h 17.7 km/h 75% 0.0 mm 0 W/m2
03:09 7 °C 3 °C 1018.6 hPa NW 7.4 km/h 17.7 km/h 75.7% 0.0 mm 0 W/m2
03:14 7 °C 3.1 °C 1018.6 hPa NW 6.7 km/h 17.7 km/h 76.1% 0.0 mm 0 W/m2
03:19 7 °C 3.2 °C 1018.5 hPa NW 7.8 km/h 17.7 km/h 77% 0.0 mm 0 W/m2
03:24 7 °C 3.2 °C 1018.4 hPa NW 9 km/h 19.3 km/h 77.1% 0.0 mm 0 W/m2
03:29 7 °C 3.4 °C 1018.4 hPa NW 11 km/h 19.3 km/h 78% 0.0 mm 0 W/m2
03:34 6.9 °C 3.4 °C 1018.4 hPa NW 11.2 km/h 19.3 km/h 78% 0.0 mm 0 W/m2
03:39 6.9 °C 3.5 °C 1018.6 hPa NNW 9.7 km/h 19.3 km/h 78.7% 0.0 mm 0 W/m2
03:44 6.9 °C 3.5 °C 1018.6 hPa NNW 9.7 km/h 19.3 km/h 79% 0.0 mm 0 W/m2
03:49 6.9 °C 3.5 °C 1018.5 hPa NNW 9.7 km/h 19.3 km/h 79% 0.0 mm 0 W/m2
03:54 6.9 °C 3.6 °C 1018.3 hPa North 9.7 km/h 17.7 km/h 79.6% 0.0 mm 0 W/m2
03:59 6.8 °C 3.6 °C 1018.2 hPa North 10.3 km/h 17.7 km/h 80% 0.0 mm 0 W/m2
04:04 6.8 °C 3.6 °C 1018.4 hPa North 10.9 km/h 17.7 km/h 80.4% 0.0 mm 0 W/m2
04:09 6.7 °C 3.7 °C 1018.5 hPa North 8 km/h 17.7 km/h 81% 0.0 mm 0 W/m2
04:14 6.7 °C 3.7 °C 1018.5 hPa North 5.1 km/h 17.7 km/h 81% 0.0 mm 0 W/m2
04:19 6.7 °C 3.6 °C 1018.5 hPa North 5.8 km/h 14.5 km/h 81.2% 0.0 mm 0 W/m2
04:24 6.7 °C 3.7 °C 1018.5 hPa NNW 4.8 km/h 14.5 km/h 81.2% 0.0 mm 0 W/m2
04:29 6.7 °C 3.6 °C 1018.2 hPa WNW 4.8 km/h 22.5 km/h 81% 0.0 mm 0 W/m2
04:34 6.7 °C 3.6 °C 1018.2 hPa West 5.5 km/h 22.5 km/h 80.9% 0.0 mm 0 W/m2
04:39 6.8 °C 3.6 °C 1018.4 hPa West 6.4 km/h 22.5 km/h 80% 0.0 mm 0 W/m2
04:44 6.9 °C 3.6 °C 1018.4 hPa WNW 5.8 km/h 19.3 km/h 80% 0.0 mm 0 W/m2
04:49 6.8 °C 3.6 °C 1018.3 hPa NW 4.5 km/h 14.5 km/h 80% 0.0 mm 0 W/m2
04:54 6.8 °C 3.6 °C 1018.3 hPa NW 3.6 km/h 19.3 km/h 80% 0.0 mm 0 W/m2
04:59 6.7 °C 3.5 °C 1018.2 hPa WNW 5.5 km/h 19.3 km/h 80.1% 0.0 mm 0 W/m2
05:04 6.7 °C 3.6 °C 1018.0 hPa WNW 8.7 km/h 29 km/h 81% 0.0 mm 0 W/m2
05:09 6.6 °C 3.6 °C 1018.0 hPa West 12 km/h 30.6 km/h 81.2% 0.0 mm 0 W/m2
05:14 6.6 °C 3.8 °C 1017.9 hPa West 15.5 km/h 30.6 km/h 82% 0.0 mm 0 W/m2
05:19 6.7 °C 3.8 °C 1018.1 hPa West 17.1 km/h 33.8 km/h 82% 0.0 mm 0 W/m2
05:24 6.7 °C 3.9 °C 1018.2 hPa West 16.1 km/h 33.8 km/h 82% 0.0 mm 0 W/m2
05:29 6.7 °C 3.9 °C 1018.2 hPa WNW 16.8 km/h 30.6 km/h 82% 0.0 mm 0 W/m2
05:34 6.7 °C 3.9 °C 1018.2 hPa WNW 19 km/h 30.6 km/h 82.3% 0.0 mm 0 W/m2
05:39 6.5 °C 3.9 °C 1018.2 hPa WNW 17 km/h 30.6 km/h 83% 0.0 mm 0 W/m2
05:44 6.4 °C 3.9 °C 1018.1 hPa WNW 15.4 km/h 27.4 km/h 83.9% 0.0 mm 0 W/m2
05:49 6.3 °C 3.9 °C 1018.0 hPa WNW 16.1 km/h 29 km/h 84.4% 0.0 mm 0 W/m2
05:54 6.3 °C 3.9 °C 1018.0 hPa NW 16.7 km/h 32.2 km/h 85% 0.0 mm 0 W/m2
05:59 6.3 °C 3.9 °C 1018.0 hPa NW 16.1 km/h 32.2 km/h 85% 0.0 mm 0 W/m2
06:04 6.2 °C 3.9 °C 1018.2 hPa NW 15.4 km/h 32.2 km/h 85.3% 0.0 mm 0 W/m2
06:09 6.3 °C 4.1 °C 1018.2 hPa NW 13.1 km/h 29 km/h 86% 0.0 mm 0 W/m2
06:14 6.3 °C 4.1 °C 1018.3 hPa NW 10.3 km/h 24.1 km/h 86% 0.0 mm 0 W/m2
06:19 6.3 °C 4.1 °C 1018.4 hPa NNW 11.3 km/h 20.9 km/h 86% 0.0 mm 0 W/m2
06:24 6.2 °C 4.1 °C 1018.4 hPa NNW 12.6 km/h 20.9 km/h 86% 0.0 mm 0 W/m2
06:29 6.2 °C 4.1 °C 1018.4 hPa NNW 12.9 km/h 20.9 km/h 86% 0.0 mm 0 W/m2
06:34 6.2 °C 4.1 °C 1018.5 hPa NNW 12.9 km/h 9.7 km/h 86% 0.0 mm W/m2
06:39 6.2 °C 4.1 °C 1018.6 hPa NNW 12.9 km/h 9.7 km/h 86% 0.0 mm W/m2
06:44 6.2 °C 4.1 °C 1018.5 hPa NNW 12.9 km/h 9.7 km/h 86% 0.0 mm W/m2
06:49 6.2 °C 4.1 °C 1018.4 hPa NNW 12.9 km/h 9.7 km/h 86% 0.0 mm W/m2
06:54 6.2 °C 4.1 °C 1018.4 hPa NNW 12.9 km/h 9.7 km/h 86% 0.0 mm W/m2
06:59 6.2 °C 4.1 °C 1018.5 hPa NNW 12.9 km/h 9.7 km/h 86% 0.0 mm W/m2
07:04 6.2 °C 4.1 °C 1018.6 hPa NNW 12.9 km/h 9.7 km/h 86% 0.0 mm W/m2
07:09 6.2 °C 4.1 °C 1018.4 hPa NNW 12.9 km/h 9.7 km/h 86% 0.0 mm W/m2
07:14 6.2 °C 4.1 °C 1018.4 hPa NNW 12.9 km/h 9.7 km/h 86% 0.0 mm W/m2
07:19 6.2 °C 4.1 °C 1018.6 hPa NNW 12.9 km/h 9.7 km/h 86% 0.0 mm W/m2
07:24 6.2 °C 4.1 °C 1018.5 hPa NNW 12.9 km/h 9.7 km/h 86% 0.0 mm W/m2
07:29 6.2 °C 4.1 °C 1018.5 hPa NNW 12.9 km/h 9.7 km/h 86% 0.0 mm W/m2
07:34 6.2 °C 4.1 °C 1018.4 hPa NNW 12.9 km/h 9.7 km/h 86% 0.0 mm W/m2
07:39 6.2 °C 4.1 °C 1018.5 hPa NNW 12.9 km/h 9.7 km/h 86% 0.0 mm W/m2
07:44 6.2 °C 4.1 °C 1018.4 hPa NNW 12.9 km/h 9.7 km/h 86% 0.0 mm W/m2
07:49 6.2 °C 4.1 °C 1018.6 hPa NNW 12.9 km/h 9.7 km/h 86% 0.0 mm W/m2
07:54 6.2 °C 4.1 °C 1018.6 hPa NNW 12.9 km/h 9.7 km/h 86% 0.0 mm W/m2
07:59 6.2 °C 4.1 °C 1018.5 hPa NNW 12.9 km/h 9.7 km/h 86% 0.0 mm W/m2
08:04 6.2 °C 4.1 °C 1018.6 hPa NNW 12.9 km/h 9.7 km/h 86% 0.0 mm W/m2
08:09 6.2 °C 4.1 °C 1018.6 hPa NNW 12.9 km/h 9.7 km/h 86% 0.0 mm W/m2
08:14 6.2 °C 4.1 °C 1018.6 hPa NNW 12.9 km/h 9.7 km/h 86% 0.0 mm W/m2
08:19 6.2 °C 4.1 °C 1018.7 hPa NNW 12.9 km/h 9.7 km/h 86% 0.0 mm W/m2
08:24 6.2 °C 4.1 °C 1018.7 hPa NNW 12.9 km/h 9.7 km/h 86% 0.0 mm W/m2
08:29 6.2 °C 4.1 °C 1018.7 hPa NNW 12.9 km/h 9.7 km/h 86% 0.0 mm W/m2
08:34 6.2 °C 4.1 °C 1018.7 hPa NNW 12.9 km/h 9.7 km/h 86% 0.0 mm W/m2
08:39 6.2 °C 4.1 °C 1018.9 hPa NNW 12.9 km/h 9.7 km/h 86% 0.0 mm W/m2
08:44 6.2 °C 4.1 °C 1019.0 hPa NNW 12.9 km/h 9.7 km/h 86% 0.0 mm W/m2
08:49 6.2 °C 4.1 °C 1019.1 hPa NNW 12.9 km/h 9.7 km/h 86% 0.0 mm W/m2
08:54 6.2 °C 4.1 °C 1019.1 hPa NNW 12.9 km/h 9.7 km/h 86% 0.0 mm W/m2
08:59 6.2 °C 4.1 °C 1019.1 hPa NNW 12.9 km/h 9.7 km/h 86% 0.0 mm W/m2
09:04 6.2 °C 4.1 °C 1019.2 hPa NNW 12.9 km/h 9.7 km/h 86% 0.0 mm W/m2
09:09 6.2 °C 4.1 °C 1019.2 hPa NNW 12.9 km/h 9.7 km/h 86% 0.0 mm W/m2
09:14 6.2 °C 4.1 °C 1019.2 hPa NNW 12.9 km/h 9.7 km/h 86% 0.0 mm W/m2
09:19 7.3 °C 4.8 °C 1019.3 hPa NW 12.9 km/h 30.6 km/h 84.1% 0.0 mm 592 W/m2
09:24 9.3 °C 5.6 °C 1019.2 hPa NW 13 km/h 32.2 km/h 78% 0.0 mm 638 W/m2
09:29 9.4 °C 5.9 °C 1019.3 hPa NW 17.4 km/h 33.8 km/h 78.7% 0.0 mm 642 W/m2
09:34 9.3 °C 5.7 °C 1019.3 hPa NW 16.4 km/h 33.8 km/h 78.3% 0.0 mm 642 W/m2
09:39 9.4 °C 5.9 °C 1019.2 hPa NW 17.4 km/h 37 km/h 79% 0.0 mm 622 W/m2
09:44 9.4 °C 5.9 °C 1019.3 hPa NW 17.7 km/h 37 km/h 79% 0.0 mm 650 W/m2
09:49 9.5 °C 6.1 °C 1019.3 hPa NW 18.7 km/h 38.6 km/h 79% 0.0 mm 686 W/m2
09:54 9.6 °C 6 °C 1019.3 hPa NW 19.3 km/h 38.6 km/h 78.3% 0.0 mm 717 W/m2
09:59 9.5 °C 5.8 °C 1019.2 hPa NW 19.3 km/h 43.5 km/h 78.2% 0.0 mm 717 W/m2
10:04 9.8 °C 6.2 °C 1019.1 hPa NW 19.7 km/h 43.5 km/h 78.4% 0.0 mm 680 W/m2
10:09 9.9 °C 6.2 °C 1018.9 hPa NW 20.6 km/h 43.5 km/h 77.5% 0.0 mm 624 W/m2
10:14 10.3 °C 6.5 °C 1018.9 hPa NW 19 km/h 40.2 km/h 77.7% 0.0 mm 615 W/m2
10:19 10 °C 6.1 °C 1018.9 hPa NW 19.3 km/h 40.2 km/h 76.4% 0.0 mm 585 W/m2
10:24 9.8 °C 6.1 °C 1018.9 hPa WNW 21.3 km/h 41.8 km/h 77.7% 0.0 mm 596 W/m2
10:29 10.1 °C 6.4 °C 1018.8 hPa WNW 20.5 km/h 41.8 km/h 77.8% 0.0 mm 591 W/m2
10:34 10.3 °C 6.4 °C 1018.9 hPa NW 19 km/h 41.8 km/h 76.7% 0.0 mm 585 W/m2
10:39 10.5 °C 6.3 °C 1019.0 hPa WNW 18.7 km/h 43.5 km/h 75.5% 0.0 mm 612 W/m2
10:44 10.4 °C 6.3 °C 1018.9 hPa WNW 20.3 km/h 43.5 km/h 75.5% 0.0 mm 608 W/m2
10:49 10.6 °C 6.5 °C 1018.8 hPa WNW 19.9 km/h 43.5 km/h 75.9% 0.0 mm 631 W/m2
10:54 10.8 °C 6.5 °C 1018.8 hPa WNW 18.1 km/h 38.6 km/h 74.9% 0.0 mm 631 W/m2
10:59 10.6 °C 6.2 °C 1019.0 hPa WNW 21.3 km/h 40.2 km/h 74.4% 0.0 mm 638 W/m2
11:04 10.6 °C 6.4 °C 1018.9 hPa WNW 24.1 km/h 40.2 km/h 75.2% 0.0 mm 622 W/m2
11:09 10.8 °C 6.6 °C 1018.9 hPa NW 22.5 km/h 41.8 km/h 75.1% 0.0 mm 622 W/m2
11:14 11.1 °C 6.8 °C 1018.8 hPa NW 20.3 km/h 41.8 km/h 74.5% 0.0 mm 622 W/m2
11:19 11.3 °C 6.8 °C 1018.7 hPa WNW 19.3 km/h 41.8 km/h 73.7% 0.0 mm 624 W/m2
11:24 11.5 °C 6.9 °C 1018.6 hPa WNW 18.4 km/h 40.2 km/h 73.2% 0.0 mm 628 W/m2
11:29 11.3 °C 6.7 °C 1018.6 hPa WNW 20.7 km/h 40.2 km/h 73.1% 0.0 mm 629 W/m2
11:34 11.4 °C 6.7 °C 1018.5 hPa WNW 21.5 km/h 40.2 km/h 73.1% 0.0 mm 629 W/m2
11:39 11.6 °C 6.9 °C 1018.4 hPa WNW 20.3 km/h 37 km/h 72.7% 0.0 mm 629 W/m2
11:44 11.9 °C 7 °C 1018.4 hPa WNW 18.9 km/h 37 km/h 72.3% 0.0 mm 631 W/m2
11:49 12 °C 7 °C 1018.4 hPa WNW 17 km/h 37 km/h 71.5% 0.0 mm 635 W/m2
11:54 11.9 °C 6.9 °C 1018.4 hPa NW 17.1 km/h 32.2 km/h 71.5% 0.0 mm 636 W/m2
11:59 11.9 °C 7.1 °C 1018.4 hPa NW 19.3 km/h 37 km/h 72.3% 0.0 mm 635 W/m2
12:04 11.9 °C 7.1 °C 1018.3 hPa NW 20 km/h 37 km/h 72.6% 0.0 mm 638 W/m2
12:09 12.4 °C 7.5 °C 1018.2 hPa NW 17.3 km/h 37 km/h 71.9% 0.0 mm 636 W/m2
12:14 12.5 °C 7.3 °C 1018.2 hPa NW 14.5 km/h 32.2 km/h 70.7% 0.0 mm 631 W/m2
12:19 12.6 °C 7.6 °C 1018.2 hPa NW 14.5 km/h 32.2 km/h 71.3% 0.0 mm 629 W/m2
12:24 12.9 °C 7.7 °C 1018.1 hPa NW 13.8 km/h 32.2 km/h 70.5% 0.0 mm 638 W/m2
12:29 12.7 °C 7.4 °C 1018.2 hPa NW 13.3 km/h 30.6 km/h 70% 0.0 mm 635 W/m2
12:34 12.7 °C 7.6 °C 1018.2 hPa NW 15.8 km/h 30.6 km/h 71.2% 0.0 mm 684 W/m2
12:39 13 °C 7.7 °C 1018.2 hPa NNW 15.4 km/h 30.6 km/h 70.4% 0.0 mm 752 W/m2
12:44 13.1 °C 7.9 °C 1018.2 hPa NNW 14.5 km/h 27.4 km/h 70.5% 0.0 mm 752 W/m2
12:49 13 °C 7.5 °C 1018.0 hPa NNW 15.8 km/h 33.8 km/h 69.3% 0.0 mm 682 W/m2
12:54 12.2 °C 7.2 °C 1018.0 hPa NNW 17.4 km/h 33.8 km/h 71.6% 0.0 mm 659 W/m2
12:59 12.4 °C 7.5 °C 1017.8 hPa NW 18.6 km/h 33.8 km/h 72.5% 0.0 mm 603 W/m2
13:04 12.9 °C 7.5 °C 1017.7 hPa WNW 17 km/h 32.2 km/h 69.5% 0.0 mm 592 W/m2
Compliments of Weather Underground - 2 mb

Latitude S 35° 13' 00" Longitude E 149° 01' 22" Elevation 577 m
Page updated 8/5/2026 1:05:30 pm.
Powered by Cumulus MX v4.5.2 (4105)